Red Rock, Oklahoma
Current Conditions -  °F | °C
As of 10:53 PM on Friday 28 Nov 2014 (Local Time) from KPNC Reporting Station
Clear Clear  
Wind Chill: 56°   Ceiling: Unl
Heat Index: 56°   Visibility: 10mi
Dew Point: 44°   Wind: 13mph
Humidity: 64%   Direction: 170°S
Pressure: 29.77"   Gusts: 21mph
Location:  36.46°N, 97.18°W
Report Text: KPNC 290453Z AUTO 17011G18KT 10SM CLR 13/07 A2977 RMK AO2 SLP075 T01330067
Loading
Personal Weather Stations






























Interactive Weather Map New forecast layout! Learn more

10-Day Weather Forecast

Advertisements
Track Severe Weather on mobile